Time;durP1;ratioP1;P1;durP2;ratioP2;P2;SDS_P1;SDS_P2;PMS_P1;PMS_P2;Temp;Humidity;BMP_temperature;BMP_pressure;BME280_temperature;BME280_humidity;BME280_pressure;Samples;Min_cycle;Max_cycle;Signal;HPM_P1;HPM_P2
2022/12/18 00:01:21;;;;;;;9.70;5.65;;;;;;;14.13;65.72;101381.34;5053127;28;20036;-76
2022/12/18 00:03:47;;;;;;;8.48;5.15;;;;;;;14.09;65.56;101379.91;5052666;28;20025;-76
2022/12/18 00:06:13;;;;;;;24.90;5.68;;;;;;;14.08;65.85;101370.06;5053268;28;20027;-76
2022/12/18 00:08:39;;;;;;;10.30;5.60;;;;;;;13.90;65.84;101363.50;5052966;28;20032;-76
2022/12/18 00:11:07;;;;;;;11.38;5.45;;;;;;;13.91;65.99;101381.41;5051946;28;20028;-76
2022/12/18 00:13:33;;;;;;;9.27;5.93;;;;;;;13.94;65.85;101383.03;5053749;28;20116;-76
2022/12/18 00:16:08;;;;;;;10.07;6.03;;;;;;;13.98;65.46;101388.03;5054534;28;20105;-75
2022/12/18 00:18:34;;;;;;;10.02;5.70;;;;;;;14.00;65.61;101385.22;5053401;28;20051;-75
2022/12/18 00:21:02;;;;;;;8.98;5.45;;;;;;;14.00;65.44;101369.88;5052023;28;20029;-75
2022/12/18 00:23:28;;;;;;;12.80;5.13;;;;;;;14.05;65.30;101389.25;5051459;28;20029;-75
2022/12/18 00:25:54;;;;;;;9.32;5.35;;;;;;;13.97;65.46;101377.38;5051085;28;20476;-76
2022/12/18 00:28:19;;;;;;;8.40;4.80;;;;;;;13.81;65.67;101358.84;5051692;28;20037;-75
2022/12/18 00:30:44;;;;;;;7.03;4.97;;;;;;;14.01;65.39;101393.19;5051940;28;20126;-75
2022/12/18 00:33:10;;;;;;;8.45;4.72;;;;;;;14.04;65.04;101398.34;5051759;28;20025;-76
2022/12/18 00:35:35;;;;;;;5.88;3.95;;;;;;;13.86;65.02;101380.09;5051142;28;20087;-76
2022/12/18 00:38:01;;;;;;;7.97;4.13;;;;;;;13.65;65.43;101374.63;5051081;28;20036;-76
2022/12/18 00:40:26;;;;;;;6.53;4.20;;;;;;;13.83;65.38;101421.78;5032104;28;20037;-76
2022/12/18 00:42:55;;;;;;;7.18;4.60;;;;;;;13.78;65.76;101428.53;5051097;28;20033;-74
2022/12/18 00:45:29;;;;;;;7.13;4.70;;;;;;;13.74;65.89;101417.13;5050694;28;20096;-74
2022/12/18 00:47:55;;;;;;;6.28;4.50;;;;;;;13.80;65.25;101418.44;5050975;28;20028;-75
2022/12/18 00:50:22;;;;;;;5.70;4.32;;;;;;;13.81;65.32;101417.47;5050692;28;20056;-74
2022/12/18 00:52:48;;;;;;;8.02;3.80;;;;;;;13.87;64.94;101417.84;5049324;28;20029;-75
2022/12/18 00:55:14;;;;;;;6.57;4.35;;;;;;;13.67;65.28;101415.88;5051263;28;20494;-75
2022/12/18 00:57:39;;;;;;;6.85;4.90;;;;;;;13.60;65.37;101418.25;5050673;28;20025;-76
2022/12/18 01:00:08;;;;;;;5.22;4.20;;;;;;;13.63;65.28;101425.25;5050631;28;20543;-76
2022/12/18 01:02:33;;;;;;;7.22;4.65;;;;;;;13.53;65.12;101399.94;5051661;28;20057;-74
2022/12/18 01:04:59;;;;;;;4.97;4.18;;;;;;;13.64;65.22;101437.78;5051960;28;20071;-75
2022/12/18 01:07:24;;;;;;;5.82;4.53;;;;;;;13.70;65.30;101437.28;5050737;28;20566;-75
2022/12/18 01:09:50;;;;;;;10.02;4.70;;;;;;;13.73;65.42;101431.59;5051423;28;20037;-77
2022/12/18 01:12:15;;;;;;;8.50;4.68;;;;;;;13.69;64.96;101424.75;5050667;28;20079;-75
2022/12/18 01:14:41;;;;;;;7.53;4.00;;;;;;;13.72;64.97;101438.03;5051195;28;20036;-75
2022/12/18 01:17:06;;;;;;;5.50;4.22;;;;;;;13.72;64.90;101438.03;5051340;28;20514;-76
2022/12/18 01:19:32;;;;;;;6.68;4.50;;;;;;;13.79;64.79;101455.44;5051366;28;20555;-75
2022/12/18 01:21:58;;;;;;;6.30;4.15;;;;;;;13.81;64.82;101456.19;5051645;28;20068;-76
2022/12/18 01:24:23;;;;;;;6.15;3.90;;;;;;;13.55;64.58;101412.34;5051274;28;20025;-75
2022/12/18 01:26:49;;;;;;;15.50;4.78;;;;;;;13.97;64.25;101472.91;5050613;28;20052;-75
2022/12/18 01:29:14;;;;;;;12.65;4.25;;;;;;;13.95;63.91;101468.56;5049763;28;20419;-75
2022/12/18 01:31:40;;;;;;;9.10;4.20;;;;;;;13.89;63.64;101453.72;5050106;28;20036;-75
2022/12/18 01:34:05;;;;;;;10.38;4.85;;;;;;;13.94;63.84;101453.34;5050072;28;20025;-75
2022/12/18 01:36:36;;;;;;;10.15;4.35;;;;;;;13.93;63.81;101438.09;5050044;28;20026;-75
2022/12/18 01:39:07;;;;;;;6.40;4.30;;;;;;;14.01;63.48;101457.25;5050130;28;20108;-75
2022/12/18 01:44:57;;;;;;;10.20;4.38;;;;;;;13.96;63.07;101464.91;5051123;28;20091;-75
2022/12/18 01:47:44;;;;;;;4.65;3.35;;;;;;;13.87;63.22;101466.50;5050134;28;20094;-75
2022/12/18 01:50:24;;;;;;;5.45;4.05;;;;;;;13.91;63.21;101469.84;5050395;28;20049;-76
2022/12/18 01:52:57;;;;;;;7.45;4.15;;;;;;;13.89;63.20;101474.47;5049821;28;20135;-75
2022/12/18 01:55:26;;;;;;;7.20;4.40;;;;;;;13.97;63.03;101486.41;5049775;28;20040;-75
2022/12/18 01:57:55;;;;;;;4.68;3.35;;;;;;;13.97;62.73;101493.66;5049820;28;20032;-75
2022/12/18 02:00:22;;;;;;;7.30;3.75;;;;;;;13.95;62.78;101488.38;5049760;28;20432;-74
2022/12/18 02:02:48;;;;;;;6.38;3.72;;;;;;;13.89;62.54;101488.88;5050109;28;20024;-76
2022/12/18 02:05:43;;;;;;;6.00;3.83;;;;;;;13.91;62.64;101483.34;5050143;28;20039;-76
2022/12/18 02:08:30;;;;;;;5.03;3.72;;;;;;;13.91;62.70;101480.66;5007169;28;20129;-76
2022/12/18 02:11:17;;;;;;;5.25;3.70;;;;;;;13.94;62.62;101465.00;5007472;28;20156;-75
2022/12/18 02:13:51;;;;;;;5.43;3.90;;;;;;;13.95;62.50;101480.25;5007620;28;20433;-76
2022/12/18 02:16:32;;;;;;;6.75;3.80;;;;;;;13.95;62.44;101491.06;4990728;28;20037;-75
2022/12/18 02:19:01;;;;;;;8.50;3.53;;;;;;;13.85;62.50;101484.69;5007300;28;20193;-75
2022/12/18 02:21:54;;;;;;;4.78;3.92;;;;;;;13.86;62.64;101490.97;5007276;28;20045;-75
2022/12/18 02:24:32;;;;;;;4.95;3.63;;;;;;;13.83;62.89;101492.06;5007454;28;20113;-76
2022/12/18 02:27:06;;;;;;;6.00;3.75;;;;;;;13.78;62.86;101488.03;5012542;28;20108;-76
2022/12/18 02:29:43;;;;;;;7.63;3.88;;;;;;;13.36;62.90;101422.09;5009320;28;20475;-77
2022/12/18 02:32:16;;;;;;;5.78;3.95;;;;;;;13.75;63.35;101483.72;5009733;28;20112;-76
2022/12/18 02:34:44;;;;;;;6.78;4.28;;;;;;;13.65;62.94;101493.56;5010977;28;20037;-75
2022/12/18 02:37:14;;;;;;;8.73;4.57;;;;;;;13.72;62.88;101502.91;5010861;28;20028;-74
2022/12/18 02:39:43;;;;;;;12.60;5.00;;;;;;;13.62;62.79;101494.69;5011224;28;20140;-74
2022/12/18 02:42:09;;;;;;;6.75;3.58;;;;;;;13.58;62.82;101517.53;5011200;28;20567;-77
2022/12/18 02:44:42;;;;;;;5.20;3.85;;;;;;;13.48;62.83;101515.69;5022841;28;20041;-74
2022/12/18 02:47:12;;;;;;;6.85;4.43;;;;;;;13.45;63.19;101529.44;5067450;28;20041;-75
2022/12/18 02:49:59;;;;;;;5.40;4.00;;;;;;;13.47;63.31;101543.69;5053165;28;20045;-76
2022/12/18 02:52:36;;;;;;;8.63;3.85;;;;;;;13.51;62.85;101546.03;5053077;28;20028;-75
2022/12/18 02:55:12;;;;;;;8.60;4.78;;;;;;;13.46;63.03;101560.88;5052892;28;20110;-76
2022/12/18 02:57:55;;;;;;;6.30;3.38;;;;;;;13.47;63.19;101554.50;5052724;28;20032;-75
2022/12/18 03:00:28;;;;;;;10.65;3.67;;;;;;;13.46;63.16;101556.34;5052774;28;20032;-74
2022/12/18 03:03:10;;;;;;;5.28;3.28;;;;;;;13.28;63.89;101549.66;5052571;28;20068;-75
2022/12/18 03:05:49;;;;;;;7.28;4.30;;;;;;;13.24;63.78;101531.97;5052505;28;20029;-75
2022/12/18 03:08:20;;;;;;;5.40;3.83;;;;;;;13.11;63.74;101517.72;5052437;28;20424;-75
2022/12/18 03:11:09;;;;;;;9.27;4.38;;;;;;;13.36;63.91;101559.88;5052668;28;20025;-74
2022/12/18 03:13:46;;;;;;;4.50;3.58;;;;;;;13.44;63.57;101560.13;5052335;28;20159;-74
2022/12/18 03:16:17;;;;;;;12.50;4.47;;;;;;;13.29;63.91;101542.44;5052498;28;20060;-75
2022/12/18 03:18:49;;;;;;;8.40;4.13;;;;;;;13.27;63.97;101555.22;5050921;28;20028;-74
2022/12/18 03:21:19;;;;;;;5.22;4.00;;;;;;;13.24;64.15;101548.19;5051085;28;20025;-75
2022/12/18 03:23:49;;;;;;;6.28;4.05;;;;;;;13.13;64.48;101552.69;5052126;28;20488;-76
2022/12/18 03:26:19;;;;;;;10.98;4.60;;;;;;;13.11;64.53;101552.81;5052295;28;20146;-74
2022/12/18 03:28:59;;;;;;;5.55;4.10;;;;;;;13.12;64.72;101548.28;5054110;28;20025;-74
2022/12/18 03:31:26;;;;;;;5.53;4.35;;;;;;;13.12;65.08;101551.00;5056622;28;20033;-74
2022/12/18 03:33:53;;;;;;;5.00;3.55;;;;;;;13.18;64.71;101553.22;5055902;28;20543;-72
2022/12/18 03:36:18;;;;;;;10.15;4.40;;;;;;;13.23;64.91;101551.00;5052227;28;20060;-75
2022/12/18 03:38:44;;;;;;;6.22;4.28;;;;;;;13.27;64.33;101552.50;5050542;28;20186;-74
2022/12/18 03:41:18;;;;;;;5.80;4.43;;;;;;;13.12;64.42;101519.41;5051921;28;20374;-73
2022/12/18 03:44:12;;;;;;;9.75;3.92;;;;;;;13.24;64.49;101558.16;5051559;28;20028;-74
2022/12/18 03:46:55;;;;;;;7.13;4.10;;;;;;;13.32;64.49;101564.66;5051754;28;20382;-75
2022/12/18 03:49:24;;;;;;;6.82;4.45;;;;;;;13.31;63.36;101570.19;5051387;28;20069;-73
2022/12/18 03:52:00;;;;;;;6.68;3.88;;;;;;;13.34;62.67;101575.34;5051622;28;20041;-75
2022/12/18 03:54:28;;;;;;;5.03;4.22;;;;;;;13.33;61.96;101566.38;5051584;28;20029;-74
2022/12/18 03:57:00;;;;;;;6.20;3.78;;;;;;;13.11;61.71;101543.88;5051478;28;20087;-73
2022/12/18 03:59:27;;;;;;;;;;;;;;;13.33;61.72;101587.16;5051918;28;20029;-74
2022/12/18 04:01:54;;;;;;;5.30;3.58;;;;;;;13.23;61.33;101596.94;5051415;28;19909;-75
2022/12/18 04:04:21;;;;;;;6.03;3.50;;;;;;;13.34;61.46;101615.88;5051287;28;20381;-73
2022/12/18 04:06:49;;;;;;;7.88;4.90;;;;;;;13.39;61.10;101619.09;5051656;28;20127;-74
2022/12/18 04:09:15;;;;;;;7.95;4.68;;;;;;;13.39;61.04;101638.00;5051117;28;20056;-76
2022/12/18 04:11:43;;;;;;;10.77;4.50;;;;;;;13.41;60.09;101642.31;5051144;28;20114;-75
2022/12/18 04:14:09;;;;;;;6.57;4.85;;;;;;;13.40;60.50;101656.81;5050970;28;20040;-75
2022/12/18 04:16:34;;;;;;;6.80;4.82;;;;;;;13.41;60.09;101669.34;5051092;28;20029;-75
2022/12/18 04:19:00;;;;;;;8.00;4.68;;;;;;;13.22;60.09;101668.16;5049570;28;20029;-76
2022/12/18 04:21:25;;;;;;;8.02;4.78;;;;;;;13.01;59.95;101639.06;5051305;28;20104;-75
2022/12/18 04:23:51;;;;;;;6.78;4.65;;;;;;;13.27;60.05;101677.63;5050983;28;20033;-75
2022/12/18 04:26:16;;;;;;;5.65;4.72;;;;;;;13.17;60.33;101679.31;5050808;28;20029;-73
2022/12/18 04:28:42;;;;;;;8.15;5.25;;;;;;;13.17;60.50;101681.16;5051061;28;20040;-76
2022/12/18 04:31:08;;;;;;;11.20;5.93;;;;;;;13.23;59.60;101696.91;5050921;28;20033;-74
2022/12/18 04:33:33;;;;;;;8.73;5.32;;;;;;;13.14;59.23;101697.59;5052892;28;20040;-74
2022/12/18 04:35:58;;;;;;;8.43;6.32;;;;;;;13.13;59.24;101709.34;5053455;28;20029;-75
2022/12/18 04:38:24;;;;;;;9.02;6.28;;;;;;;13.06;58.51;101704.38;5053077;28;20029;-75
2022/12/18 04:40:49;;;;;;;9.48;6.10;;;;;;;12.93;58.88;101710.84;5050477;28;20542;-74
2022/12/18 04:43:15;;;;;;;10.48;5.85;;;;;;;12.90;58.93;101720.00;5050528;28;20029;-75
2022/12/18 04:45:40;;;;;;;13.10;7.78;;;;;;;12.89;58.33;101720.13;5050644;28;20399;-74
2022/12/18 04:48:06;;;;;;;13.32;7.50;;;;;;;12.70;58.28;101739.50;5050380;28;20033;-75
2022/12/18 04:50:31;;;;;;;13.05;8.10;;;;;;;12.60;57.73;101743.81;5050286;28;20063;-73
2022/12/18 04:52:57;;;;;;;13.20;8.48;;;;;;;12.49;57.90;101732.97;5050289;28;20468;-76
2022/12/18 04:55:26;;;;;;;11.85;8.02;;;;;;;12.26;57.93;101726.47;5051662;28;20017;-75
2022/12/18 04:57:52;;;;;;;13.20;8.68;;;;;;;12.24;58.20;101730.28;5051616;28;20511;-73
2022/12/18 05:00:17;;;;;;;15.50;9.98;;;;;;;12.22;58.41;101738.50;5050884;28;20021;-72
2022/12/18 05:02:43;;;;;;;15.82;9.48;;;;;;;12.08;58.75;101749.34;5050263;28;20036;-74
2022/12/18 05:05:08;;;;;;;18.63;11.23;;;;;;;12.04;58.93;101755.97;5049891;28;20548;-76
2022/12/18 05:07:34;;;;;;;22.38;9.25;;;;;;;12.02;59.19;101765.97;5050080;28;20025;-75
2022/12/18 05:09:59;;;;;;;16.92;9.00;;;;;;;11.98;59.15;101765.34;5050063;28;20396;-77
2022/12/18 05:12:25;;;;;;;23.02;9.13;;;;;;;11.93;58.66;101775.56;5050086;28;20040;-76
2022/12/18 05:14:50;;;;;;;12.25;8.65;;;;;;;11.68;60.27;101737.75;5030042;28;20155;-75
2022/12/18 05:17:16;;;;;;;13.80;8.27;;;;;;;11.90;59.93;101781.16;5030925;28;20048;-74
2022/12/18 05:19:41;;;;;;;17.10;9.35;;;;;;;11.87;60.88;101799.38;5030639;28;20025;-75
2022/12/18 05:22:07;;;;;;;15.15;9.20;;;;;;;11.76;59.97;101805.50;5048813;28;20473;-76
2022/12/18 05:24:32;;;;;;;15.02;9.55;;;;;;;11.39;60.63;101763.09;5050013;28;20027;-73
2022/12/18 05:26:58;;;;;;;19.30;10.50;;;;;;;11.41;60.39;101806.94;5049609;28;20777;-76
2022/12/18 05:29:23;;;;;;;17.40;11.50;;;;;;;11.00;60.69;101752.28;5049474;28;20021;-74
2022/12/18 05:31:49;;;;;;;19.48;11.50;;;;;;;11.19;60.74;101822.81;5049525;28;20031;-77
2022/12/18 05:34:14;;;;;;;19.90;12.65;;;;;;;11.21;61.45;101826.25;5049644;28;20411;-76
2022/12/18 05:36:39;;;;;;;19.08;12.50;;;;;;;11.19;61.42;101826.34;5049801;28;20036;-76
2022/12/18 05:39:06;;;;;;;18.42;11.45;;;;;;;11.20;61.52;101836.16;5052571;28;20024;-75
2022/12/18 05:41:31;;;;;;;22.08;12.77;;;;;;;11.13;60.96;101834.81;5053937;28;20037;-75
2022/12/18 05:43:57;;;;;;;26.33;12.43;;;;;;;10.92;61.03;101836.19;5033242;28;20036;-76
2022/12/18 05:46:24;;;;;;;25.20;12.73;;;;;;;10.93;60.83;101830.72;5054999;28;20017;-75
2022/12/18 05:48:50;;;;;;;24.33;14.35;;;;;;;10.72;60.28;101812.38;5049273;28;20421;-75
2022/12/18 05:51:18;;;;;;;25.25;14.57;;;;;;;10.91;60.07;101851.50;5049355;28;20041;-75
2022/12/18 05:53:44;;;;;;;25.00;14.35;;;;;;;10.67;60.30;101827.97;5049205;28;20480;-75
2022/12/18 05:56:18;;;;;;;28.02;14.57;;;;;;;10.52;59.91;101837.84;5050221;28;20031;-75
2022/12/18 05:58:44;;;;;;;28.50;16.20;;;;;;;10.55;59.66;101869.09;5049438;28;20033;-73
2022/12/18 06:01:14;;;;;;;33.53;17.08;;;;;;;10.61;60.01;101904.53;5049074;28;20029;-75
2022/12/18 06:03:40;;;;;;;25.90;16.05;;;;;;;10.60;60.12;101905.50;5049694;28;20039;-76
2022/12/18 06:06:17;;;;;;;27.33;16.60;;;;;;;10.61;60.11;101911.75;5046652;28;20033;-77
2022/12/18 06:08:43;;;;;;;27.15;16.35;;;;;;;10.59;60.14;101914.53;5049589;28;20411;-76
2022/12/18 06:11:08;;;;;;;33.60;16.42;;;;;;;10.39;60.82;101896.06;5063791;28;20035;-76
2022/12/18 06:13:34;;;;;;;32.97;17.77;;;;;;;10.60;60.48;101915.38;5047748;28;20068;-79
2022/12/18 06:16:02;;;;;;;28.83;16.58;;;;;;;10.53;60.12;101914.88;5050909;28;20107;-78
2022/12/18 06:18:28;;;;;;;32.47;18.30;;;;;;;10.57;60.17;101932.59;5050345;28;20029;-80
2022/12/18 06:20:56;;;;;;;31.52;18.35;;;;;;;10.40;60.23;101930.03;5050049;28;20052;-79
2022/12/18 06:23:22;;;;;;;30.90;18.63;;;;;;;10.55;59.89;101990.97;5050085;28;20029;-78
2022/12/18 06:25:48;;;;;;;28.50;17.38;;;;;;;10.47;59.69;102001.34;5049762;28;20079;-77
2022/12/18 06:28:13;;;;;;;29.13;16.63;;;;;;;10.09;60.64;101957.00;5050241;28;20033;-79
2022/12/18 06:30:39;;;;;;;28.58;17.23;;;;;;;10.15;60.83;101962.03;5049956;28;20494;-78
2022/12/18 06:33:04;;;;;;;32.85;18.13;;;;;;;10.28;60.85;102009.63;5049604;28;20021;-78
2022/12/18 06:35:31;;;;;;;40.20;18.60;;;;;;;10.19;61.60;102023.59;5049867;28;20026;-79
2022/12/18 06:37:56;;;;;;;34.88;17.67;;;;;;;10.05;62.01;102020.81;5050015;28;20033;-81
2022/12/18 06:40:22;;;;;;;29.98;18.15;;;;;;;10.05;62.22;102038.75;5049837;28;20465;-79
2022/12/18 06:42:47;;;;;;;37.08;18.98;;;;;;;9.94;62.77;102007.09;5064580;28;20040;-80
2022/12/18 06:45:16;;;;;;;35.53;19.70;;;;;;;10.05;62.57;102046.81;5065244;28;20021;-79
2022/12/18 06:47:41;;;;;;;39.35;20.80;;;;;;;9.99;62.84;102047.16;5085678;28;20523;-79
2022/12/18 06:50:07;;;;;;;38.00;22.13;;;;;;;9.92;62.81;102053.81;5050211;28;20045;-78
2022/12/18 06:52:33;;;;;;;33.53;19.73;;;;;;;9.63;63.15;102010.63;5050448;28;20498;-80
2022/12/18 06:54:59;;;;;;;36.28;21.73;;;;;;;9.84;63.28;102049.78;5053055;28;20033;-80
2022/12/18 06:57:24;;;;;;;36.58;21.60;;;;;;;9.37;63.50;101984.34;5054336;28;20090;-82
2022/12/18 06:59:50;;;;;;;42.15;21.70;;;;;;;9.72;63.56;102058.47;5050418;28;20366;-77
2022/12/18 07:02:15;;;;;;;37.58;21.90;;;;;;;9.66;63.55;102048.06;5051979;28;20025;-81
2022/12/18 07:04:40;;;;;;;37.95;22.27;;;;;;;9.42;63.48;102006.44;5051715;28;20025;-81
2022/12/18 07:07:06;;;;;;;43.72;24.25;;;;;;;9.70;63.63;102056.84;5048900;28;20029;-79
2022/12/18 07:09:31;;;;;;;40.35;22.23;;;;;;;9.76;63.54;102068.13;5049309;28;20075;-78
2022/12/18 07:11:57;;;;;;;47.13;26.02;;;;;;;9.81;63.11;102060.66;5048806;28;20468;-78
2022/12/18 07:14:22;;;;;;;44.45;24.63;;;;;;;9.88;63.33;102065.72;5049101;28;20032;-76
2022/12/18 07:16:48;;;;;;;49.13;24.25;;;;;;;9.94;63.36;102055.47;5049128;28;20108;-79
2022/12/18 07:19:13;;;;;;;45.28;24.42;;;;;;;9.93;62.94;102059.13;5052006;28;20415;-78
2022/12/18 07:21:38;;;;;;;47.70;25.52;;;;;;;10.05;63.04;102079.06;5051136;28;20592;-79
2022/12/18 07:24:04;;;;;;;42.47;24.23;;;;;;;10.20;63.03;102083.63;5052789;28;20553;-79
2022/12/18 07:26:30;;;;;;;46.35;24.42;;;;;;;10.16;62.29;102084.75;5051642;28;20556;-77
2022/12/18 07:28:57;;;;;;;46.95;23.55;;;;;;;10.37;62.28;102102.34;5051868;28;20132;-77
2022/12/18 07:31:23;;;;;;;47.78;26.17;;;;;;;10.24;61.80;102082.50;5052173;28;20028;-78
2022/12/18 07:33:49;;;;;;;48.85;24.85;;;;;;;10.42;61.97;102089.53;5052020;28;20099;-77
2022/12/18 07:36:15;;;;;;;60.75;27.88;;;;;;;10.57;61.76;102095.81;5051729;28;20051;-79
2022/12/18 07:38:41;;;;;;;56.50;28.13;;;;;;;10.76;61.29;102110.78;5051996;28;20040;-78
2022/12/18 07:41:12;;;;;;;43.67;24.67;;;;;;;10.73;61.02;102100.22;5051465;28;20033;-78
2022/12/18 07:43:38;;;;;;;53.30;26.45;;;;;;;10.73;60.82;102092.13;5058921;28;20511;-78
2022/12/18 07:46:04;;;;;;;45.22;24.60;;;;;;;10.81;60.24;102106.03;5060723;28;20054;-78
2022/12/18 07:48:30;;;;;;;64.57;27.13;;;;;;;10.90;60.27;102113.56;5054543;28;20089;-77
2022/12/18 07:51:00;;;;;;;50.55;26.17;;;;;;;10.83;59.86;102082.56;5034271;28;20088;-78
2022/12/18 07:53:26;;;;;;;47.30;27.02;;;;;;;10.75;59.98;102098.31;5050930;28;20029;-77
2022/12/18 07:56:02;;;;;;;47.38;25.88;;;;;;;10.90;59.92;102121.63;5051517;28;20112;-77
2022/12/18 07:58:29;;;;;;;57.95;26.52;;;;;;;10.83;59.88;102120.25;5052099;28;20036;-77
2022/12/18 08:01:01;;;;;;;46.75;25.52;;;;;;;10.69;60.09;102122.03;5051665;28;20029;-79
2022/12/18 08:03:27;;;;;;;46.63;25.75;;;;;;;10.75;60.45;102125.22;5049171;28;20045;-80
2022/12/18 08:05:52;;;;;;;44.28;25.77;;;;;;;10.69;60.92;102130.97;5051408;28;20017;-76
2022/12/18 08:08:17;;;;;;;48.65;26.58;;;;;;;10.68;60.76;102122.97;5050426;28;20108;-76
2022/12/18 08:10:43;;;;;;;57.15;28.20;;;;;;;10.74;61.30;102133.38;5050995;28;20021;-78
2022/12/18 08:13:08;;;;;;;49.28;28.25;;;;;;;10.73;60.81;102137.88;5051142;28;20033;-77
2022/12/18 08:15:34;;;;;;;41.15;25.13;;;;;;;10.75;60.69;102144.06;5051379;28;20488;-77
2022/12/18 08:17:59;;;;;;;57.83;30.08;;;;;;;10.70;60.92;102148.81;5050850;28;20043;-78
2022/12/18 08:20:24;;;;;;;49.40;29.05;;;;;;;10.63;61.02;102142.09;5049025;28;20021;-78
2022/12/18 08:22:50;;;;;;;47.35;27.60;;;;;;;10.66;61.25;102146.41;5049008;28;20044;-78
2022/12/18 08:25:15;;;;;;;81.65;41.72;;;;;;;10.59;61.81;102137.81;5050275;28;20025;-78
2022/12/18 08:27:41;;;;;;;71.80;34.30;;;;;;;10.68;61.62;102133.72;5050517;28;20036;-78
2022/12/18 08:30:07;;;;;;;50.72;28.17;;;;;;;10.69;60.94;102130.97;5050316;28;20079;-78
2022/12/18 08:32:33;;;;;;;52.05;26.23;;;;;;;10.71;60.62;102137.13;5050541;28;20064;-78
2022/12/18 08:34:58;;;;;;;48.95;28.27;;;;;;;10.78;60.87;102146.59;5050788;28;20062;-78
2022/12/18 08:37:24;;;;;;;46.95;26.88;;;;;;;10.76;60.64;102144.94;5047992;28;20049;-78
2022/12/18 08:39:49;;;;;;;48.88;26.88;;;;;;;10.71;60.26;102118.28;5050763;28;20029;-77
2022/12/18 08:44:59;;;;;;;62.72;29.50;;;;;;;10.63;61.09;102099.03;5053042;28;20031;-80
2022/12/18 08:47:25;;;;;;;51.00;28.75;;;;;;;10.63;60.76;102096.34;5055264;28;20036;-77
2022/12/18 08:49:51;;;;;;;45.92;29.02;;;;;;;10.88;60.32;102141.53;5053332;28;20045;-77
2022/12/18 08:52:16;;;;;;;56.70;29.27;;;;;;;10.73;60.47;102121.75;5053493;28;20558;-80
2022/12/18 08:54:42;;;;;;;65.28;31.90;;;;;;;10.64;60.63;102127.66;5050623;28;20045;-77
2022/12/18 08:57:07;;;;;;;49.85;28.02;;;;;;;10.80;60.64;102139.28;5050587;28;20035;-78
2022/12/18 08:59:33;;;;;;;51.63;28.42;;;;;;;10.76;60.17;102139.56;5051219;28;20464;-78
2022/12/18 09:01:58;;;;;;;62.15;30.30;;;;;;;10.66;60.94;102131.16;5050242;28;20029;-76
2022/12/18 09:04:23;;;;;;;51.42;27.88;;;;;;;10.54;61.79;102147.13;5051293;28;20498;-77
2022/12/18 09:06:49;;;;;;;49.58;27.05;;;;;;;10.63;61.55;102141.22;5051343;28;20461;-78
2022/12/18 09:09:14;;;;;;;54.20;27.02;;;;;;;10.56;61.36;102129.06;5050949;28;20025;-77
2022/12/18 09:11:40;;;;;;;50.70;28.23;;;;;;;10.60;60.70;102130.63;5050801;28;20385;-77
2022/12/18 09:14:06;;;;;;;52.35;28.10;;;;;;;10.60;61.52;102131.50;5050670;28;20498;-78
2022/12/18 09:16:34;;;;;;;55.28;28.38;;;;;;;10.66;61.56;102123.06;5051297;28;20480;-78
2022/12/18 09:19:01;;;;;;;46.25;27.65;;;;;;;10.76;61.60;102116.19;5050554;28;20033;-78
2022/12/18 09:21:29;;;;;;;57.75;29.98;;;;;;;10.86;60.71;102127.28;5050453;28;20139;-78
2022/12/18 09:23:55;;;;;;;57.55;29.52;;;;;;;10.80;60.97;102116.88;5049868;28;20043;-76
2022/12/18 09:26:22;;;;;;;87.72;46.78;;;;;;;10.96;61.23;102124.91;5049487;28;20025;-79
2022/12/18 09:28:48;;;;;;;59.80;32.28;;;;;;;10.93;61.33;102129.53;5050622;28;20385;-79
2022/12/18 09:31:14;;;;;;;52.15;28.83;;;;;;;10.74;60.44;102091.19;5050288;28;20059;-78
2022/12/18 09:33:39;;;;;;;60.95;29.85;;;;;;;11.06;60.63;102128.81;5050395;28;20028;-77
2022/12/18 09:36:07;;;;;;;60.58;31.17;;;;;;;10.95;60.35;102115.13;5050848;28;20079;-79
2022/12/18 09:38:34;;;;;;;61.83;32.55;;;;;;;11.13;60.40;102132.88;5050780;28;20025;-78
2022/12/18 09:41:04;;;;;;;71.28;33.22;;;;;;;11.11;60.48;102122.19;5051166;28;20037;-77
2022/12/18 09:43:40;;;;;;;63.78;30.45;;;;;;;11.09;60.39;102128.63;5050700;28;20442;-77
2022/12/18 09:46:14;;;;;;;62.55;30.30;;;;;;;11.17;59.95;102132.59;5049966;28;20036;-78
2022/12/18 09:48:44;;;;;;;72.32;29.55;;;;;;;11.14;60.33;102129.19;5050592;28;20099;-78
2022/12/18 09:51:14;;;;;;;62.22;29.27;;;;;;;10.78;60.81;102079.31;5055188;28;20481;-78
2022/12/18 09:53:43;;;;;;;54.15;29.50;;;;;;;11.03;60.67;102123.59;5059973;28;20082;-77
2022/12/18 09:56:15;;;;;;;52.63;28.42;;;;;;;11.03;60.10;102113.72;5057033;28;20029;-77
2022/12/18 09:58:49;;;;;;;58.25;31.08;;;;;;;11.03;60.29;102119.09;5048820;28;20032;-78
2022/12/18 10:01:18;;;;;;;58.35;30.95;;;;;;;11.03;60.48;102123.59;5049364;28;20035;-77
2022/12/18 10:03:43;;;;;;;56.50;30.65;;;;;;;11.15;60.57;102118.34;5045744;28;20182;-76
2022/12/18 10:06:45;;;;;;;69.20;35.15;;;;;;;11.19;60.73;102125.28;5048565;28;20112;-76
2022/12/18 10:09:22;;;;;;;56.97;31.08;;;;;;;11.18;60.05;102120.88;5047842;28;20029;-79
2022/12/18 10:12:10;;;;;;;53.38;31.63;;;;;;;11.17;60.44;102126.31;5048390;28;20029;-78
2022/12/18 10:14:54;;;;;;;74.88;34.55;;;;;;;11.14;59.96;102126.50;5048030;28;20427;-76
2022/12/18 10:17:45;;;;;;;53.30;31.23;;;;;;;11.18;59.99;102117.31;5048167;28;20028;-78
2022/12/18 10:20:20;;;;;;;76.00;35.80;;;;;;;11.12;60.75;102118.53;5048836;28;20021;-78
2022/12/18 10:22:54;;;;;;;56.47;30.60;;;;;;;11.24;60.05;102116.94;5048159;28;20029;-79
2022/12/18 10:26:00;;;;;;;54.95;30.38;;;;;;;11.14;60.30;102088.81;5048511;28;20048;-78
2022/12/18 10:28:26;;;;;;;57.40;32.08;;;;;;;11.36;59.99;102126.97;5045481;28;20048;-77
2022/12/18 10:30:52;;;;;;;53.00;29.17;;;;;;;11.38;59.52;102123.22;5012899;28;20048;-79
2022/12/18 10:33:20;;;;;;;75.90;30.58;;;;;;;11.32;59.30;102136.19;5045690;28;20040;-77
2022/12/18 10:35:51;;;;;;;53.72;30.13;;;;;;;11.13;59.94;102120.25;5046393;28;20036;-79
2022/12/18 10:38:16;;;;;;;51.08;27.52;;;;;;;10.99;60.23;102089.72;5045385;28;20029;-77
2022/12/18 10:40:49;;;;;;;60.55;29.95;;;;;;;11.30;60.06;102135.41;5045628;28;20100;-77
2022/12/18 10:43:20;;;;;;;51.67;28.02;;;;;;;11.27;60.15;102132.91;5045829;28;20040;-78
2022/12/18 10:46:09;;;;;;;51.72;29.30;;;;;;;11.16;60.31;102141.63;5045588;28;20056;-78
2022/12/18 10:48:47;;;;;;;56.60;31.13;;;;;;;11.21;60.09;102149.44;5045977;28;20558;-78
2022/12/18 10:51:30;;;;;;;50.58;28.83;;;;;;;11.17;59.99;102142.47;5046435;28;20120;-77
2022/12/18 10:54:05;;;;;;;59.42;30.02;;;;;;;11.13;60.55;102155.25;5051648;28;20029;-78
2022/12/18 10:56:33;;;;;;;63.50;30.23;;;;;;;10.86;60.55;102130.84;5058191;28;20041;-78
2022/12/18 10:59:02;;;;;;;57.05;31.23;;;;;;;11.11;60.72;102153.63;5056064;28;20113;-78
2022/12/18 11:01:30;;;;;;;67.40;33.17;;;;;;;11.05;60.77;102136.00;5044695;28;20037;-79
2022/12/18 11:03:56;;;;;;;54.95;30.38;;;;;;;11.34;59.98;102155.81;5029734;28;20029;-78
2022/12/18 11:06:25;;;;;;;61.90;31.45;;;;;;;11.26;59.59;102141.94;5051621;28;20071;-78
2022/12/18 11:09:21;;;;;;;55.83;29.25;;;;;;;11.37;59.80;102155.63;5058268;28;20033;-78
2022/12/18 11:11:53;;;;;;;58.92;31.10;;;;;;;11.45;59.76;102165.00;5051877;28;20045;-77
2022/12/18 11:14:52;;;;;;;62.33;30.75;;;;;;;11.44;59.24;102178.53;5053145;28;20186;-78
2022/12/18 11:17:35;;;;;;;64.88;30.75;;;;;;;11.34;59.56;102150.44;5030323;28;20049;-77
2022/12/18 11:20:06;;;;;;;56.53;32.67;;;;;;;11.50;59.34;102178.16;5030034;28;20034;-77
2022/12/18 11:22:34;;;;;;;59.55;32.92;;;;;;;11.33;60.01;102176.50;5029990;28;20057;-78
2022/12/18 11:25:06;;;;;;;66.95;33.08;;;;;;;11.21;60.68;102181.75;5029961;28;20025;-78
2022/12/18 11:27:32;;;;;;;62.70;32.75;;;;;;;11.16;60.55;102176.63;5030053;28;20076;-78
2022/12/18 11:30:10;;;;;;;61.33;32.42;;;;;;;11.26;60.83;102185.91;5034149;28;20033;-80
2022/12/18 11:32:44;;;;;;;75.53;34.15;;;;;;;11.18;60.79;102177.41;5047012;28;20029;-76